Time;durP1;ratioP1;P1;durP2;ratioP2;P2;SDS_P1;SDS_P2;PMS_P1;PMS_P2;Temp;Humidity;BMP_temperature;BMP_pressure;BME280_temperature;BME280_humidity;BME280_pressure;Samples;Min_cycle;Max_cycle;Signal;HPM_P1;HPM_P2
2021/10/03 07:01:16;;;;;;;0.40;0.40;;;;;;;17.45;64.45;97698.81;5582327;23;20581;-72
2021/10/03 07:03:42;;;;;;;0.32;0.32;;;;;;;17.59;63.50;97695.31;4974890;28;20035;-71
2021/10/03 07:06:08;;;;;;;0.50;0.50;;;;;;;17.64;63.56;97698.47;4974730;28;20050;-71
2021/10/03 07:08:33;;;;;;;0.73;0.70;;;;;;;17.69;64.09;97696.41;4974495;28;20027;-71
2021/10/03 07:10:58;;;;;;;0.40;0.40;;;;;;;18.10;62.80;97703.41;4974481;28;20030;-72
2021/10/03 07:13:24;;;;;;;0.32;0.32;;;;;;;18.30;62.60;97706.50;4974631;28;20030;-72
2021/10/03 07:15:49;;;;;;;0.32;0.32;;;;;;;18.57;60.37;97694.16;4974665;28;20027;-72
2021/10/03 07:18:15;;;;;;;1.05;0.47;;;;;;;18.91;56.78;97720.75;4974647;28;20026;-72
2021/10/03 07:20:41;;;;;;;0.98;0.35;;;;;;;19.37;56.25;97717.53;4978037;28;20082;-72
2021/10/03 07:23:06;;;;;;;0.68;0.68;;;;;;;19.23;56.55;97708.81;4974201;28;20062;-72
2021/10/03 07:25:31;;;;;;;0.10;0.10;;;;;;;19.53;55.23;97720.72;4974575;28;20078;-72
2021/10/03 07:27:57;;;;;;;0.52;0.52;;;;;;;19.67;57.42;97727.66;4974341;28;20379;-72
2021/10/03 07:30:22;;;;;;;0.68;0.68;;;;;;;19.54;56.17;97724.22;4974137;28;20034;-72
2021/10/03 07:32:47;;;;;;;0.43;0.43;;;;;;;19.54;57.17;97722.44;4974529;28;20018;-72
2021/10/03 07:35:13;;;;;;;0.28;0.28;;;;;;;19.68;57.76;97729.38;4974349;28;20025;-71
2021/10/03 07:37:38;;;;;;;1.65;0.43;;;;;;;19.60;55.86;97735.16;4974085;28;20061;-72
2021/10/03 07:40:05;;;;;;;0.30;0.30;;;;;;;19.65;54.68;97733.03;4974604;28;20415;-71
2021/10/03 07:42:31;;;;;;;0.30;0.30;;;;;;;19.20;54.90;97730.06;4966807;28;20037;-71
2021/10/03 07:44:56;;;;;;;0.43;0.43;;;;;;;19.37;52.48;97741.16;4968111;28;20468;-71
2021/10/03 07:47:22;;;;;;;0.17;0.17;;;;;;;19.46;51.96;97735.28;4973943;28;20054;-71
2021/10/03 07:49:47;;;;;;;0.57;0.57;;;;;;;19.30;53.91;97746.03;4974001;28;20061;-71
2021/10/03 07:52:12;;;;;;;0.20;0.20;;;;;;;19.41;51.26;97732.13;4973492;28;20323;-71
2021/10/03 07:54:38;;;;;;;0.57;0.57;;;;;;;19.39;53.41;97718.25;4973871;28;20043;-71
2021/10/03 07:57:03;;;;;;;0.30;0.30;;;;;;;19.37;52.52;97720.16;4973883;28;20019;-71
2021/10/03 07:59:29;;;;;;;0.28;0.28;;;;;;;19.60;50.72;97714.13;4973669;28;20373;-71
2021/10/03 08:01:54;;;;;;;0.30;0.30;;;;;;;19.69;50.67;97704.75;4973470;28;20049;-71
2021/10/03 08:04:19;;;;;;;0.60;0.50;;;;;;;19.68;51.68;97709.19;4973678;28;20034;-70
2021/10/03 08:06:45;;;;;;;0.25;0.25;;;;;;;19.67;51.33;97704.84;4973549;28;20027;-71
2021/10/03 08:09:10;;;;;;;0.10;0.10;;;;;;;19.72;52.87;97729.00;4973661;28;20535;-70
2021/10/03 08:11:35;;;;;;;0.10;0.10;;;;;;;19.62;54.28;97730.63;4973146;28;20022;-70
2021/10/03 08:14:01;;;;;;;0.30;0.30;;;;;;;19.40;57.02;97730.47;4968103;28;20031;-70
2021/10/03 08:16:26;;;;;;;0.50;0.47;;;;;;;19.06;58.09;97743.31;4972965;28;20026;-71
2021/10/03 08:18:52;;;;;;;0.63;0.63;;;;;;;18.79;59.06;97738.16;4973435;28;20409;-71
2021/10/03 08:21:17;;;;;;;0.80;0.75;;;;;;;18.58;60.25;97747.47;4973125;28;20026;-71
2021/10/03 08:23:43;;;;;;;0.35;0.35;;;;;;;18.60;59.86;97730.66;4973145;28;20030;-71
2021/10/03 08:26:09;;;;;;;0.77;0.77;;;;;;;18.67;58.11;97731.94;4973371;28;20121;-70
2021/10/03 08:28:34;;;;;;;0.55;0.50;;;;;;;18.86;55.93;97728.09;4969004;28;20038;-71
2021/10/03 08:31:00;;;;;;;0.20;0.20;;;;;;;18.97;55.14;97715.91;4973157;28;20022;-70
2021/10/03 08:33:25;;;;;;;0.13;0.13;;;;;;;19.18;52.84;97705.69;4973122;28;20035;-71
2021/10/03 08:35:51;;;;;;;0.65;0.43;;;;;;;19.33;52.34;97710.81;4972969;28;20048;-71
2021/10/03 08:38:16;;;;;;;0.32;0.32;;;;;;;19.30;53.03;97713.66;4973505;28;20023;-71
2021/10/03 08:40:42;;;;;;;0.25;0.25;;;;;;;19.11;56.35;97704.44;4972998;28;20035;-71
2021/10/03 08:43:08;;;;;;;0.35;0.35;;;;;;;18.94;57.62;97712.66;4969199;28;20026;-71
2021/10/03 08:45:42;;;;;;;0.30;0.30;;;;;;;18.80;58.69;97710.13;4972681;28;20026;-71
2021/10/03 08:48:08;;;;;;;0.40;0.40;;;;;;;18.71;59.22;97707.22;4972957;28;20034;-71
2021/10/03 08:50:33;;;;;;;0.22;0.22;;;;;;;18.69;59.79;97703.81;4972039;28;20026;-71
2021/10/03 08:52:59;;;;;;;0.20;0.20;;;;;;;18.82;60.30;97705.63;4969067;28;20081;-70
2021/10/03 08:55:24;;;;;;;0.40;0.40;;;;;;;18.79;60.60;97703.19;4972904;28;20019;-70
2021/10/03 08:57:49;;;;;;;0.40;0.40;;;;;;;18.82;61.43;97713.50;4972196;28;20045;-72
2021/10/03 09:00:19;;;;;;;0.28;0.28;;;;;;;18.72;62.11;97719.38;4972867;28;20029;-71
2021/10/03 09:02:50;;;;;;;;;;;;;;;18.89;61.60;97722.63;4964330;28;20101;-71
2021/10/03 09:05:16;;;;;;;0.55;0.55;;;;;;;19.00;61.27;97734.09;4971528;28;19910;-71
2021/10/03 09:08:05;;;;;;;0.65;0.60;;;;;;;19.03;62.29;97732.19;4972747;28;20054;-71
2021/10/03 09:10:55;;;;;;;0.70;0.70;;;;;;;19.09;61.39;97737.84;4969878;28;20114;-71
2021/10/03 09:13:41;;;;;;;0.20;0.20;;;;;;;19.10;62.31;97739.53;4970384;28;20070;-73
2021/10/03 09:16:35;;;;;;;0.30;0.30;;;;;;;19.16;61.30;97739.09;4972440;28;20783;-71
2021/10/03 09:19:12;;;;;;;0.95;0.80;;;;;;;19.27;60.04;97752.31;4967138;28;20035;-70
2021/10/03 09:21:42;;;;;;;0.35;0.35;;;;;;;19.21;60.16;97741.41;4972373;28;20444;-71
2021/10/03 09:24:11;;;;;;;0.57;0.43;;;;;;;19.23;59.33;97750.84;4968066;28;20523;-71
2021/10/03 09:26:38;;;;;;;0.35;0.35;;;;;;;19.33;58.79;97750.22;4972806;28;20037;-71
2021/10/03 09:29:22;;;;;;;0.57;0.57;;;;;;;19.43;58.49;97757.34;4972566;28;20031;-71
2021/10/03 09:32:13;;;;;;;0.20;0.20;;;;;;;19.51;58.68;97743.66;4970323;28;20023;-70
2021/10/03 09:34:47;;;;;;;1.00;1.00;;;;;;;19.59;59.21;97757.09;4972013;28;20030;-70
2021/10/03 09:37:23;;;;;;;0.22;0.22;;;;;;;19.65;58.88;97755.88;4972639;28;20035;-70
2021/10/03 09:39:50;;;;;;;0.65;0.65;;;;;;;19.56;59.14;97752.06;4968355;28;20105;-71
2021/10/03 09:42:17;;;;;;;0.10;0.10;;;;;;;19.52;58.31;97734.81;4969631;28;20015;-71
2021/10/03 09:45:05;;;;;;;0.30;0.30;;;;;;;19.53;58.90;97736.50;4968372;28;20022;-71
2021/10/03 09:47:31;;;;;;;0.30;0.30;;;;;;;19.51;59.34;97733.16;4972386;28;20034;-71
2021/10/03 09:49:57;;;;;;;0.13;0.13;;;;;;;19.59;58.75;97728.19;4972289;28;20027;-71
2021/10/03 09:52:24;;;;;;;0.10;0.10;;;;;;;19.58;60.52;97739.66;4971960;28;20066;-71
2021/10/03 09:54:49;;;;;;;0.30;0.30;;;;;;;19.54;61.24;97732.94;4972372;28;20420;-71
2021/10/03 09:57:18;;;;;;;0.68;0.68;;;;;;;19.52;62.18;97733.03;4972229;28;20022;-71
2021/10/03 09:59:45;;;;;;;0.17;0.17;;;;;;;19.44;62.68;97721.41;4972367;28;20044;-71
2021/10/03 10:02:12;;;;;;;0.20;0.20;;;;;;;19.32;63.21;97732.78;4971982;28;20033;-71
2021/10/03 10:04:38;;;;;;;0.13;0.13;;;;;;;19.35;63.45;97732.56;4972173;28;20031;-73
2021/10/03 10:07:04;;;;;;;0.73;0.65;;;;;;;19.24;64.14;97723.66;4972064;28;20023;-73
2021/10/03 10:09:30;;;;;;;0.10;0.10;;;;;;;19.24;64.56;97731.53;4974724;28;20539;-71
2021/10/03 10:12:07;;;;;;;1.13;0.32;;;;;;;19.27;65.19;97730.47;4975211;28;20021;-71
2021/10/03 10:14:39;;;;;;;0.20;0.20;;;;;;;19.13;65.65;97734.06;4970700;28;20031;-71
2021/10/03 10:17:28;;;;;;;0.40;0.40;;;;;;;19.12;65.69;97729.75;4975599;28;20097;-71
2021/10/03 10:19:55;;;;;;;0.30;0.30;;;;;;;19.06;66.53;97732.81;4975659;28;20030;-71
2021/10/03 10:22:24;;;;;;;0.20;0.20;;;;;;;19.11;65.61;97735.97;4972020;28;20093;-71
2021/10/03 10:24:51;;;;;;;;;;;;;;;19.05;64.89;97731.13;4975944;28;20030;-71
2021/10/03 10:27:24;;;;;;;0.38;0.38;;;;;;;19.10;64.68;97734.28;4975590;28;19914;-71
2021/10/03 10:30:01;;;;;;;0.40;0.40;;;;;;;19.11;64.03;97735.97;4975654;28;20110;-71
2021/10/03 10:32:32;;;;;;;0.43;0.30;;;;;;;19.24;64.09;97736.78;4975077;28;20365;-71
2021/10/03 10:35:09;;;;;;;0.25;0.25;;;;;;;19.32;63.59;97732.78;4975428;28;20046;-71
2021/10/03 10:37:54;;;;;;;0.55;0.55;;;;;;;19.41;64.93;97729.50;4975406;28;20041;-72
2021/10/03 10:40:25;;;;;;;1.95;1.40;;;;;;;19.43;63.49;97735.47;4971919;28;20026;-71
2021/10/03 10:42:53;;;;;;;2.45;0.55;;;;;;;19.42;63.29;97728.56;4974966;28;20019;-71
2021/10/03 10:45:28;;;;;;;0.88;0.88;;;;;;;19.54;63.12;97730.31;4975271;28;20494;-71
2021/10/03 10:48:08;;;;;;;0.50;0.50;;;;;;;19.76;63.43;97722.59;4971001;28;20117;-71
2021/10/03 10:50:39;;;;;;;0.65;0.55;;;;;;;19.78;63.34;97730.38;4975000;28;20439;-71
2021/10/03 10:53:21;;;;;;;0.30;0.30;;;;;;;19.93;63.64;97728.44;4974885;28;20113;-71
2021/10/03 10:56:08;;;;;;;0.43;0.43;;;;;;;20.02;63.19;97717.25;4974888;28;20514;-71
2021/10/03 10:58:59;;;;;;;0.75;0.63;;;;;;;20.36;63.01;97720.00;4974871;28;20027;-71
2021/10/03 11:01:30;;;;;;;0.63;0.45;;;;;;;20.51;62.80;97724.16;4974356;28;20105;-71
2021/10/03 11:04:00;;;;;;;0.43;0.43;;;;;;;20.64;62.39;97714.34;4974841;28;20066;-71
2021/10/03 11:06:31;;;;;;;0.35;0.35;;;;;;;20.74;62.37;97719.75;4974628;28;20022;-71
2021/10/03 11:08:57;;;;;;;0.30;0.30;;;;;;;20.85;61.99;97721.59;4974795;28;20105;-72
2021/10/03 11:11:33;;;;;;;1.23;0.98;;;;;;;20.78;61.02;97714.13;4974410;28;20114;-71
2021/10/03 11:14:09;;;;;;;0.50;0.50;;;;;;;20.68;61.28;97712.34;4968883;28;20109;-71
2021/10/03 11:16:46;;;;;;;0.55;0.50;;;;;;;20.65;61.54;97704.69;4974447;28;20038;-74
2021/10/03 11:19:14;;;;;;;0.88;0.88;;;;;;;20.74;61.03;97710.09;4974047;28;20034;-73
2021/10/03 11:21:46;;;;;;;0.38;0.20;;;;;;;20.42;60.60;97704.59;4974028;28;20077;-74
2021/10/03 11:24:18;;;;;;;0.35;0.35;;;;;;;20.28;61.70;97704.78;4974623;28;20026;-73
2021/10/03 11:26:48;;;;;;;0.50;0.50;;;;;;;20.31;60.87;97701.94;4974271;28;20428;-74
2021/10/03 11:29:14;;;;;;;0.45;0.32;;;;;;;20.24;61.26;97711.22;4974451;28;20026;-73
2021/10/03 11:31:49;;;;;;;1.05;0.73;;;;;;;20.34;61.96;97700.84;4973897;28;20026;-73
2021/10/03 11:34:35;;;;;;;0.50;0.50;;;;;;;20.35;61.24;97699.88;4973126;28;20110;-73
2021/10/03 11:37:40;;;;;;;1.58;0.90;;;;;;;20.41;60.89;97696.81;4969395;28;20038;-73
2021/10/03 11:40:19;;;;;;;0.25;0.25;;;;;;;20.41;60.09;97691.56;4967344;28;20038;-73
2021/10/03 11:42:47;;;;;;;0.45;0.43;;;;;;;20.33;60.89;97688.66;4967054;28;20026;-73
2021/10/03 11:45:22;;;;;;;0.55;0.47;;;;;;;20.27;61.67;97696.06;4974063;28;20138;-73
2021/10/03 11:47:51;;;;;;;0.50;0.50;;;;;;;20.18;62.19;97699.38;4973569;28;20113;-73
2021/10/03 11:50:45;;;;;;;;;;;;;;;20.13;63.02;97692.78;4974542;28;20365;-73
2021/10/03 11:53:23;;;;;;;0.13;0.13;;;;;;;19.99;63.35;97689.38;4972050;28;19918;-73
2021/10/03 11:55:52;;;;;;;0.32;0.32;;;;;;;19.94;63.77;97698.56;4969880;28;20022;-73
2021/10/03 11:58:22;;;;;;;0.65;0.65;;;;;;;19.94;63.92;97703.81;4970113;28;20026;-73
2021/10/03 12:01:03;;;;;;;1.48;1.25;;;;;;;19.97;64.03;97708.84;4968663;28;20022;-73
2021/10/03 12:03:36;;;;;;;1.65;1.05;;;;;;;19.85;65.22;97705.31;4973612;28;20444;-73
2021/10/03 12:06:21;;;;;;;1.65;0.63;;;;;;;19.87;64.47;97703.44;4973677;28;20078;-73
2021/10/03 12:08:47;;;;;;;0.70;0.70;;;;;;;19.95;63.73;97701.06;4972656;28;20019;-73
2021/10/03 12:11:14;;;;;;;0.73;0.73;;;;;;;20.00;63.50;97703.34;4973242;28;20539;-72
2021/10/03 12:13:39;;;;;;;0.43;0.43;;;;;;;19.89;64.63;97701.53;4970261;28;20037;-72
2021/10/03 12:16:22;;;;;;;0.20;0.20;;;;;;;19.82;66.15;97686.28;4971806;28;20097;-72
2021/10/03 12:18:50;;;;;;;0.30;0.30;;;;;;;19.77;66.25;97686.63;4972623;28;20456;-73
2021/10/03 12:21:27;;;;;;;0.60;0.55;;;;;;;19.82;61.85;97681.88;4969156;28;20019;-72
2021/10/03 12:24:04;;;;;;;0.30;0.30;;;;;;;19.84;62.96;97681.78;4971960;28;20081;-74
2021/10/03 12:26:52;;;;;;;0.30;0.30;;;;;;;19.85;64.71;97678.19;4973451;28;20023;-74
2021/10/03 12:29:21;;;;;;;0.82;0.50;;;;;;;19.94;65.40;97677.50;4971991;28;20069;-73
2021/10/03 12:31:46;;;;;;;0.38;0.25;;;;;;;20.10;65.99;97677.22;4973165;28;20023;-73
2021/10/03 12:34:14;;;;;;;0.80;0.75;;;;;;;20.17;65.13;97674.03;4973265;28;20085;-73
2021/10/03 12:36:48;;;;;;;0.40;0.40;;;;;;;20.24;64.96;97675.22;4973154;28;20022;-73
2021/10/03 12:39:17;;;;;;;0.75;0.65;;;;;;;20.04;65.90;97670.63;4971742;28;20029;-73
2021/10/03 12:41:43;;;;;;;0.50;0.47;;;;;;;20.16;66.19;97677.63;4972772;28;20022;-73
2021/10/03 12:44:08;;;;;;;0.30;0.30;;;;;;;20.03;65.95;97676.84;4970593;28;20101;-75
2021/10/03 12:46:35;;;;;;;0.95;0.90;;;;;;;20.17;65.91;97674.03;4973152;28;20023;-73
2021/10/03 12:49:00;;;;;;;1.27;0.50;;;;;;;20.09;65.73;97673.75;4973059;28;20029;-73
2021/10/03 12:51:25;;;;;;;1.17;0.73;;;;;;;20.07;65.62;97667.78;4972975;28;20384;-77
2021/10/03 12:53:51;;;;;;;0.80;0.80;;;;;;;20.03;65.95;97669.78;4973244;28;20023;-77
2021/10/03 12:56:16;;;;;;;0.38;0.38;;;;;;;20.05;65.71;97674.94;4972688;28;20023;-75
2021/10/03 12:58:42;;;;;;;0.50;0.50;;;;;;;20.18;65.27;97673.06;4972522;28;20101;-73
2021/10/03 13:01:11;;;;;;;0.40;0.40;;;;;;;20.37;64.84;97674.31;4972291;28;20109;-76
2021/10/03 13:03:38;;;;;;;0.50;0.50;;;;;;;20.49;64.32;97670.78;4972783;28;20027;-73
2021/10/03 13:06:05;;;;;;;0.20;0.20;;;;;;;20.57;63.95;97676.31;4971834;28;20019;-73
2021/10/03 13:08:30;;;;;;;0.40;0.38;;;;;;;20.48;64.20;97674.38;4972613;28;20031;-74
2021/10/03 13:10:56;;;;;;;4.38;1.17;;;;;;;20.51;63.71;97682.03;4972243;28;20025;-75
2021/10/03 13:13:21;;;;;;;0.43;0.20;;;;;;;20.69;63.14;97696.41;4972336;28;20027;-74
2021/10/03 13:15:46;;;;;;;2.05;0.88;;;;;;;20.95;61.84;97701.47;4971736;28;20424;-71
2021/10/03 13:18:12;;;;;;;0.90;0.63;;;;;;;20.69;62.20;97699.03;4972568;28;20065;-72
2021/10/03 13:20:37;;;;;;;0.70;0.40;;;;;;;20.69;62.02;97699.03;4971630;28;20098;-72
2021/10/03 13:23:03;;;;;;;0.68;0.68;;;;;;;20.55;63.26;97712.44;4972460;28;20465;-72
2021/10/03 13:25:28;;;;;;;0.15;0.15;;;;;;;20.47;62.91;97707.75;4971513;28;20058;-72
2021/10/03 13:27:53;;;;;;;0.30;0.30;;;;;;;20.49;64.06;97721.59;4972690;28;20101;-72
2021/10/03 13:30:19;;;;;;;3.78;0.60;;;;;;;20.27;65.66;97714.47;4972314;28;20022;-72
2021/10/03 13:32:45;;;;;;;0.60;0.60;;;;;;;20.25;65.28;97716.34;4972400;28;20034;-72
2021/10/03 13:35:11;;;;;;;0.60;0.60;;;;;;;20.16;66.39;97724.97;4972638;28;20081;-71
2021/10/03 13:37:36;;;;;;;0.35;0.35;;;;;;;20.19;67.00;97739.66;4971971;28;20034;-73
2021/10/03 13:40:03;;;;;;;0.60;0.60;;;;;;;20.06;67.53;97738.88;4972424;28;20034;-72
2021/10/03 13:42:28;;;;;;;0.40;0.40;;;;;;;19.92;68.62;97737.25;4971214;28;20492;-72
2021/10/03 13:44:54;;;;;;;0.47;0.43;;;;;;;19.90;68.54;97749.69;4975465;28;20034;-72
2021/10/03 13:47:19;;;;;;;0.30;0.30;;;;;;;19.86;69.11;97753.47;4976083;28;20030;-72
2021/10/03 13:49:45;;;;;;;0.30;0.30;;;;;;;19.81;69.71;97758.22;4976207;28;20026;-72
2021/10/03 13:52:10;;;;;;;0.82;0.38;;;;;;;19.77;69.09;97761.09;4975668;28;20027;-72
2021/10/03 13:54:36;;;;;;;0.38;0.38;;;;;;;19.79;68.89;97770.66;4975978;28;20034;-72
2021/10/03 13:57:02;;;;;;;0.63;0.63;;;;;;;19.79;68.94;97768.03;4972038;28;20035;-72
2021/10/03 13:59:27;;;;;;;1.60;1.25;;;;;;;19.79;68.80;97768.03;4975713;28;20030;-72
2021/10/03 14:01:52;;;;;;;0.40;0.40;;;;;;;19.65;69.10;97766.38;4975690;28;20464;-72
2021/10/03 14:04:18;;;;;;;0.30;0.30;;;;;;;19.57;68.10;97764.25;4975761;28;20023;-72
2021/10/03 14:06:44;;;;;;;0.32;0.32;;;;;;;19.57;66.83;97769.50;4975879;28;20034;-72
2021/10/03 14:09:09;;;;;;;0.85;0.85;;;;;;;19.52;66.09;97776.88;4975627;28;20026;-72
2021/10/03 14:11:35;;;;;;;0.38;0.38;;;;;;;19.53;66.48;97775.91;4975242;28;20023;-72
2021/10/03 14:14:00;;;;;;;4.65;0.65;;;;;;;19.58;66.07;97770.34;4975621;28;20034;-72
2021/10/03 14:16:25;;;;;;;0.45;0.45;;;;;;;19.48;64.65;97776.22;4975637;28;20023;-72
2021/10/03 14:18:50;;;;;;;1.02;1.02;;;;;;;19.54;67.50;97789.91;4972459;28;20106;-72
2021/10/03 14:21:16;;;;;;;2.88;1.88;;;;;;;19.50;68.40;97800.63;4975498;28;20114;-72
2021/10/03 14:23:41;;;;;;;2.75;1.92;;;;;;;19.40;68.87;97801.41;4975276;28;20114;-72
2021/10/03 14:26:06;;;;;;;0.68;0.68;;;;;;;19.26;69.00;97803.19;4969268;28;20022;-72
2021/10/03 14:28:32;;;;;;;0.35;0.35;;;;;;;19.24;68.35;97801.59;4968819;28;20035;-72
2021/10/03 14:30:57;;;;;;;0.73;0.73;;;;;;;19.21;68.61;97805.28;4975455;28;20428;-72
2021/10/03 14:33:23;;;;;;;1.65;0.85;;;;;;;19.18;69.13;97810.72;4975353;28;20234;-72
2021/10/03 14:35:49;;;;;;;1.50;1.23;;;;;;;19.20;68.95;97803.59;4975293;28;20019;-72
2021/10/03 14:38:15;;;;;;;1.55;0.80;;;;;;;19.19;69.75;97801.91;4975463;28;20502;-74
2021/10/03 14:40:40;;;;;;;0.73;0.73;;;;;;;19.19;70.23;97812.41;4974939;28;20170;-73
2021/10/03 14:43:06;;;;;;;1.02;1.02;;;;;;;19.26;70.84;97818.09;4970605;28;20085;-73
2021/10/03 14:45:31;;;;;;;0.50;0.50;;;;;;;19.10;73.20;97817.44;4974808;28;20035;-74
2021/10/03 14:47:57;;;;;;;0.30;0.30;;;;;;;19.06;73.42;97816.84;4974196;28;20019;-74
2021/10/03 14:50:23;;;;;;;0.47;0.47;;;;;;;19.02;73.74;97817.97;4973593;28;20030;-71
2021/10/03 14:52:50;;;;;;;0.95;0.52;;;;;;;18.95;73.03;97824.56;4974921;28;20165;-73
2021/10/03 14:55:16;;;;;;;1.02;1.02;;;;;;;18.89;72.04;97825.00;4974143;28;20019;-77
2021/10/03 14:57:41;;;;;;;0.55;0.55;;;;;;;18.91;72.05;97817.88;4969600;28;20041;-73
2021/10/03 15:00:08;;;;;;;0.22;0.22;;;;;;;18.77;71.94;97831.09;4971585;28;20546;-73
2021/10/03 15:02:33;;;;;;;0.45;0.45;;;;;;;18.63;75.65;97840.66;4974722;28;20041;-74
2021/10/03 15:05:04;;;;;;;0.40;0.40;;;;;;;18.63;76.14;97850.31;4975076;28;20031;-73
2021/10/03 15:07:30;;;;;;;0.43;0.43;;;;;;;18.48;77.33;97857.41;4974597;28;20428;-73
2021/10/03 15:09:56;;;;;;;0.30;0.30;;;;;;;18.50;77.81;97866.00;4974746;28;20361;-73
2021/10/03 15:12:21;;;;;;;0.52;0.52;;;;;;;18.54;76.25;97872.75;4974179;28;20091;-73
2021/10/03 15:14:46;;;;;;;0.63;0.63;;;;;;;18.57;75.96;97877.81;4974912;28;20037;-73
2021/10/03 15:17:11;;;;;;;1.00;0.63;;;;;;;18.40;78.35;97871.00;4974878;28;20460;-73
2021/10/03 15:19:37;;;;;;;1.00;0.75;;;;;;;18.37;77.62;97880.84;4974641;28;20027;-72
2021/10/03 15:22:02;;;;;;;0.32;0.32;;;;;;;18.32;76.52;97872.44;4974629;28;20022;-72
2021/10/03 15:24:28;;;;;;;0.40;0.40;;;;;;;18.30;75.61;97875.16;4974361;28;20066;-72
2021/10/03 15:26:53;;;;;;;0.35;0.35;;;;;;;18.33;75.94;97879.38;4968490;28;20014;-73
2021/10/03 15:29:21;;;;;;;0.38;0.38;;;;;;;18.35;77.20;97883.59;4970034;28;20050;-72
2021/10/03 15:31:47;;;;;;;0.95;0.95;;;;;;;18.39;78.79;97879.00;4974071;28;20084;-72
2021/10/03 15:34:12;;;;;;;0.68;0.68;;;;;;;18.37;79.27;97891.34;4974337;28;20062;-73
2021/10/03 15:36:37;;;;;;;0.98;0.93;;;;;;;18.38;80.11;97901.75;4973306;28;20399;-72
2021/10/03 15:39:03;;;;;;;0.47;0.47;;;;;;;18.39;80.28;97905.22;4974088;28;20089;-71
2021/10/03 15:41:28;;;;;;;1.73;1.42;;;;;;;18.20;82.48;97911.63;4974061;28;20015;-71
2021/10/03 15:43:55;;;;;;;0.50;0.50;;;;;;;18.09;83.28;97929.81;4972958;28;20019;-71
2021/10/03 15:46:21;;;;;;;1.48;1.40;;;;;;;18.20;82.33;97935.22;4974354;28;20031;-71
2021/10/03 15:48:46;;;;;;;1.98;0.98;;;;;;;18.23;81.45;97934.19;4972033;28;20377;-71
2021/10/03 15:51:12;;;;;;;0.30;0.30;;;;;;;18.02;83.63;97938.97;4973751;28;20436;-71
2021/10/03 15:53:37;;;;;;;0.75;0.63;;;;;;;18.03;84.37;97945.06;4972655;28;20141;-71
2021/10/03 15:56:02;;;;;;;16.08;1.17;;;;;;;18.15;81.29;97946.94;4971809;28;20487;-71
2021/10/03 15:58:28;;;;;;;1.55;0.93;;;;;;;17.97;82.97;97947.13;4972967;28;20031;-71
2021/10/03 16:00:53;;;;;;;0.65;0.65;;;;;;;17.89;83.27;97959.00;4973739;28;20038;-71
2021/10/03 16:03:18;;;;;;;1.25;1.15;;;;;;;17.81;83.48;97961.25;4973591;28;20026;-71
2021/10/03 16:05:44;;;;;;;0.63;0.63;;;;;;;17.71;85.54;97969.66;4973479;28;20054;-71
2021/10/03 16:08:09;;;;;;;0.50;0.50;;;;;;;17.85;80.12;97974.09;4972175;28;20026;-71
2021/10/03 16:10:35;;;;;;;0.80;0.80;;;;;;;18.05;78.01;97975.50;4973294;28;20026;-71
2021/10/03 16:13:00;;;;;;;0.30;0.30;;;;;;;18.21;73.91;97991.13;4973566;28;20134;-71
2021/10/03 16:15:26;;;;;;;0.90;0.90;;;;;;;18.02;75.96;97994.03;4970608;28;20483;-71
2021/10/03 16:17:52;;;;;;;0.80;0.68;;;;;;;18.02;76.84;97996.66;4973685;28;20030;-72
2021/10/03 16:20:17;;;;;;;0.60;0.57;;;;;;;17.90;76.83;98007.91;4973235;28;20106;-71
2021/10/03 16:22:43;;;;;;;0.60;0.40;;;;;;;18.01;74.46;98010.69;4972552;28;20011;-71
2021/10/03 16:25:08;;;;;;;0.60;0.60;;;;;;;18.15;73.68;98021.19;4973495;28;20034;-71
2021/10/03 16:27:36;;;;;;;0.55;0.55;;;;;;;18.12;73.07;98018.75;4968166;28;20381;-71
2021/10/03 16:30:02;;;;;;;0.32;0.32;;;;;;;18.14;73.95;98032.63;4972142;28;20023;-71
2021/10/03 16:32:28;;;;;;;0.38;0.38;;;;;;;17.94;74.39;98046.09;4973079;28;20022;-71
2021/10/03 16:34:53;;;;;;;0.70;0.70;;;;;;;17.99;75.16;98054.53;4973187;28;20037;-70
2021/10/03 16:37:18;;;;;;;0.65;0.65;;;;;;;17.86;76.38;98069.28;4973109;28;20038;-70
2021/10/03 16:39:44;;;;;;;0.77;0.77;;;;;;;17.77;74.97;98073.28;4973385;28;20050;-70
2021/10/03 16:42:12;;;;;;;2.72;1.90;;;;;;;17.79;76.09;98083.66;4972909;28;20022;-70
2021/10/03 16:44:37;;;;;;;2.03;1.88;;;;;;;17.91;75.61;98077.72;4972507;28;20161;-69
2021/10/03 16:47:03;;;;;;;1.08;0.40;;;;;;;17.70;76.06;98101.59;4972997;28;20102;-69
2021/10/03 16:49:28;;;;;;;0.30;0.30;;;;;;;17.56;77.92;98098.94;4967818;28;20109;-70
2021/10/03 16:51:54;;;;;;;0.68;0.60;;;;;;;17.45;79.23;98106.53;4968456;28;20121;-69
2021/10/03 16:54:19;;;;;;;0.40;0.40;;;;;;;17.40;78.80;98098.09;4972985;28;20020;-69
2021/10/03 16:56:46;;;;;;;0.30;0.30;;;;;;;17.33;78.65;98102.00;4969944;28;20113;-69
2021/10/03 16:59:12;;;;;;;0.30;0.30;;;;;;;17.33;79.23;98102.00;4967556;28;20022;-70
2021/10/03 17:01:37;;;;;;;1.90;0.60;;;;;;;17.24;80.76;98113.81;4969711;28;20049;-72
2021/10/03 17:04:03;;;;;;;0.25;0.25;;;;;;;17.21;82.01;98119.22;4964766;28;20549;-77
2021/10/03 17:06:28;;;;;;;0.77;0.77;;;;;;;17.20;81.50;98128.84;4972592;28;20050;-72
2021/10/03 17:08:53;;;;;;;1.38;0.82;;;;;;;17.13;82.27;98138.00;4972705;28;20026;-72
2021/10/03 17:11:19;;;;;;;0.73;0.73;;;;;;;17.04;83.03;98143.72;4972501;28;20091;-72
2021/10/03 17:13:44;;;;;;;0.57;0.57;;;;;;;16.93;84.87;98152.16;4972351;28;20030;-72
2021/10/03 17:16:09;;;;;;;0.63;0.63;;;;;;;16.88;84.68;98154.19;4972894;28;20081;-72
2021/10/03 17:18:35;;;;;;;1.27;1.17;;;;;;;16.83;86.10;98161.44;4971843;28;20134;-72
2021/10/03 17:21:00;;;;;;;0.80;0.80;;;;;;;16.75;87.37;98173.22;4972681;28;20015;-72
2021/10/03 17:23:26;;;;;;;0.88;0.88;;;;;;;16.65;88.74;98178.91;4968581;28;20085;-72
2021/10/03 17:25:51;;;;;;;1.50;1.42;;;;;;;16.63;88.64;98178.16;4967081;28;20027;-72
2021/10/03 17:28:17;;;;;;;0.60;0.60;;;;;;;16.54;89.77;98181.25;4972594;28;20488;-72
2021/10/03 17:30:46;;;;;;;2.25;1.35;;;;;;;16.53;89.79;98182.16;4972192;28;20125;-72
2021/10/03 17:33:12;;;;;;;1.33;1.23;;;;;;;16.70;87.63;98187.34;4971879;28;20050;-72
2021/10/03 17:35:37;;;;;;;1.23;1.23;;;;;;;16.96;83.79;98193.00;4964860;28;20055;-72
2021/10/03 17:38:03;;;;;;;0.82;0.68;;;;;;;16.97;84.04;98199.97;4970994;28;20015;-72
2021/10/03 17:40:28;;;;;;;0.60;0.60;;;;;;;16.88;84.88;98206.53;4966048;28;20038;-72
2021/10/03 17:42:55;;;;;;;0.38;0.38;;;;;;;17.00;84.53;98215.47;4968790;28;20412;-72
2021/10/03 17:45:21;;;;;;;0.85;0.85;;;;;;;17.08;83.46;98229.00;4972408;28;20023;-72
2021/10/03 17:47:47;;;;;;;0.22;0.22;;;;;;;17.02;84.48;98237.19;4972291;28;20030;-72
2021/10/03 17:50:13;;;;;;;1.85;1.02;;;;;;;17.04;85.43;98243.19;4971069;28;20073;-72
2021/10/03 17:52:38;;;;;;;1.27;1.27;;;;;;;16.89;86.65;98241.38;4971967;28;20500;-72
2021/10/03 17:55:10;;;;;;;1.08;0.98;;;;;;;16.68;88.68;98258.97;4972354;28;20035;-72
2021/10/03 17:57:35;;;;;;;0.93;0.93;;;;;;;16.53;91.61;98260.59;4972180;28;20027;-72
2021/10/03 18:00:03;;;;;;;0.93;0.90;;;;;;;16.46;91.57;98267.09;4972395;28;20029;-72
2021/10/03 18:02:28;;;;;;;0.65;0.65;;;;;;;16.34;92.13;98262.44;4971692;28;20451;-72
2021/10/03 18:04:54;;;;;;;0.47;0.47;;;;;;;16.24;93.01;98280.34;4972245;28;20058;-72
2021/10/03 18:07:19;;;;;;;0.80;0.80;;;;;;;16.26;93.59;98285.53;4972151;28;20107;-72
2021/10/03 18:09:44;;;;;;;0.57;0.57;;;;;;;16.26;95.04;98290.75;4971931;28;20046;-68
2021/10/03 18:12:10;;;;;;;1.25;0.60;;;;;;;16.18;95.44;98294.56;4971460;28;20057;-70
2021/10/03 18:14:35;;;;;;;0.75;0.75;;;;;;;16.29;95.25;98298.44;4972256;28;20031;-72
2021/10/03 18:17:01;;;;;;;0.68;0.68;;;;;;;16.41;93.77;98298.69;4972087;28;20023;-73
2021/10/03 18:19:26;;;;;;;8.75;5.78;;;;;;;16.52;92.76;98306.00;4972059;28;20085;-73
2021/10/03 18:21:54;;;;;;;1.60;1.45;;;;;;;16.31;94.44;98312.28;4971833;28;20234;-74
2021/10/03 18:24:22;;;;;;;0.73;0.73;;;;;;;16.37;93.88;98319.84;4971977;28;20027;-74
2021/10/03 18:26:47;;;;;;;0.50;0.50;;;;;;;16.38;93.75;98324.13;4972200;28;20018;-74
2021/10/03 18:29:13;;;;;;;0.60;0.60;;;;;;;16.26;95.38;98348.28;4973570;28;20023;-74
2021/10/03 18:31:39;;;;;;;1.35;1.10;;;;;;;16.12;96.63;98355.00;4975280;28;20046;-74
2021/10/03 18:34:04;;;;;;;1.15;1.05;;;;;;;16.05;96.41;98366.66;4975326;28;20102;-74
2021/10/03 18:36:30;;;;;;;0.63;0.63;;;;;;;16.23;94.78;98370.16;4975580;28;20539;-73
2021/10/03 18:38:55;;;;;;;0.60;0.60;;;;;;;16.29;94.46;98374.25;4975499;28;20025;-73